Warren, MA

3:25 PM EST on January 31, 2015 (GMT -0500)
Old Bemis Farm | Change Station
CLOSE
Current Station
Personal Weather Station
Location: West Brookfield, MA
Elevation: 823 ft
Nearby Weather Stations
Active Advisory: Winter Storm Warning

Elev 823 ft 42.18 °N, 72.19 °W | Updated 39 minutes ago

Clear
Clear
17.6 °F
Feels Like 11 °F
N
4.7
Wind Variable Wind from WSW

Today
High -- | Low -- °F
--% Chance of Precip.
Yesterday
High -- | Low -- °F
Precip. -- in
7:03 AM 5:01 PM
Waxing Gibbous, 91% visible
Pressure 29.84 in
Visibility 9.0 miles
Clouds Clear
Windchill 11 °F
Dew Point -3 °F
Humidity 40%
Rainfall 0.00 in
Snow Depth Not available.
UV 1 out of 12
Pollen .10 out of 12
Air Quality Not available.
Flu Activity Not available.
METAR KORH 311954Z 30021G33KT 9SM CLR M09/M21 A2984 RMK AO2 PK WND 31034/1931 UPB36E42 SLPNO P0000 T10891206

More Conditions Fewer Conditions

Pressure 29.84 in
Visibility 9.0 miles
Clouds Clear
Windchill 11 °F
Dew Point -3 °F
Humidity 40%
Rainfall 0.00 in
Snow Depth Not available.
UV 1 out of 12
Pollen .10 out of 12
Air Quality Not available.
Flu Activity Not available.
METAR KORH 311954Z 30021G33KT 9SM CLR M09/M21 A2984 RMK AO2 PK WND 31034/1931 UPB36E42 SLPNO P0000 T10891206

More Conditions Fewer Conditions

10-Day Weather Forecast

Almanac

Astronomy

Jan. 31, 2015 Rise Set
Actual Time
Civil Twilight
Nautical Twilight
Astronomical Twilight
Moon
Length of Visible Light
Length of Day
Tomorrow will be .
, % of the Moon is Illuminated

Today's Extremes

State Highs State Lows

Community

WunderPhotos

Upload Photos

1,792,183 photos uploaded!

WunderBlogs® & News

Nearby

Air Quality

  Air Quality AQ Index Pollutant
Not available.

Snow Depth

Station Depth Elevation

Earthquake Activity

City Distance Mag. Time & Date
Minimum magnitude displayed is 2.5.

Coastal Water Temperatures

Place Temperature

Nearby Weather Stations